createdAt,value
2023-10-23T00:00:53.161Z,95842.13
2023-10-23T00:03:21.350Z,95840.31
2023-10-23T00:05:49.496Z,95848.25
2023-10-23T00:08:17.612Z,95845.09
2023-10-23T00:10:46.220Z,95850.63
2023-10-23T00:13:14.341Z,95852.97
2023-10-23T00:15:43.833Z,95854.53
2023-10-23T00:18:11.826Z,95857.69
2023-10-23T00:20:39.791Z,95867.81
2023-10-23T00:23:07.769Z,95862.00
2023-10-23T00:25:36.779Z,95874.69
2023-10-23T00:28:04.913Z,95862.47
2023-10-23T00:30:36.772Z,95876.66
2023-10-23T00:33:06.375Z,95863.56
2023-10-23T00:35:34.463Z,95871.50
2023-10-23T00:38:02.477Z,95872.31
2023-10-23T00:40:32.894Z,95870.34
2023-10-23T00:43:13.528Z,95866.34
2023-10-23T00:45:52.114Z,95860.63
2023-10-23T00:48:23.819Z,95862.16
2023-10-23T00:50:53.346Z,95869.75
2023-10-23T00:53:26.684Z,95874.84
2023-10-23T00:55:56.932Z,95871.59
2023-10-23T00:58:27.385Z,95867.09
2023-10-23T01:00:59.179Z,95859.69
2023-10-23T01:03:28.624Z,95860.56
2023-10-23T01:05:56.746Z,95862.91
2023-10-23T01:08:24.936Z,95862.06
2023-10-23T01:10:53.429Z,95859.03
2023-10-23T01:13:21.400Z,95868.19
2023-10-23T01:15:49.799Z,95870.97
2023-10-23T01:18:17.815Z,95870.91
2023-10-23T01:20:47.304Z,95863.69
2023-10-23T01:23:15.456Z,95864.28
2023-10-23T01:25:44.763Z,95860.69
2023-10-23T01:28:12.757Z,95862.81
2023-10-23T01:30:41.702Z,95863.88
2023-10-23T01:33:09.889Z,95860.13
2023-10-23T01:35:37.873Z,95855.59
2023-10-23T01:38:05.844Z,95854.69
2023-10-23T01:40:33.973Z,95855.63
2023-10-23T01:43:03.415Z,95851.25
2023-10-23T01:45:31.376Z,95852.50
2023-10-23T01:47:59.428Z,95859.84
2023-10-23T01:50:27.376Z,95853.59
2023-10-23T01:52:55.346Z,95859.50
2023-10-23T01:55:23.305Z,95850.97
2023-10-23T01:57:51.620Z,95862.88
2023-10-23T02:00:21.169Z,95856.19
2023-10-23T02:02:49.189Z,95851.88
2023-10-23T02:05:17.143Z,95853.94
2023-10-23T02:07:45.097Z,95851.69
2023-10-23T02:10:13.034Z,95854.59
2023-10-23T02:12:41.072Z,95852.88
2023-10-23T02:15:11.406Z,95854.19
2023-10-23T02:17:40.975Z,95847.56
2023-10-23T02:20:09.548Z,95863.69
2023-10-23T02:22:37.765Z,95855.28
2023-10-23T02:25:06.887Z,95849.03
2023-10-23T02:27:34.853Z,95858.78
2023-10-23T02:30:03.007Z,95846.81
2023-10-23T02:32:31.074Z,95854.78
2023-10-23T02:35:00.502Z,95851.41
2023-10-23T02:37:28.441Z,95849.28
2023-10-23T02:39:58.527Z,95858.00
2023-10-23T02:42:26.535Z,95855.75
2023-10-23T02:44:55.270Z,95852.97
2023-10-23T02:47:23.265Z,95858.03
2023-10-23T02:49:51.288Z,95860.34
2023-10-23T02:52:22.143Z,95862.38
2023-10-23T02:54:51.982Z,95864.41
2023-10-23T02:57:20.101Z,95865.63
2023-10-23T02:59:48.940Z,95877.09
2023-10-23T03:02:17.903Z,95871.50
2023-10-23T03:04:45.874Z,95871.44
2023-10-23T03:07:14.599Z,95875.56
2023-10-23T03:09:44.223Z,95872.94
2023-10-23T03:12:12.223Z,95880.31
2023-10-23T03:14:40.230Z,95883.13
2023-10-23T03:17:08.594Z,95884.69
2023-10-23T03:19:36.684Z,95874.47
2023-10-23T03:22:05.204Z,95887.00
2023-10-23T03:24:34.976Z,95887.28
2023-10-23T03:27:04.585Z,95879.31
2023-10-23T03:29:32.662Z,95877.88
2023-10-23T03:32:00.636Z,95895.16
2023-10-23T03:34:28.606Z,95882.13
2023-10-23T03:36:56.604Z,95880.06
2023-10-23T03:39:24.693Z,95878.94
2023-10-23T03:41:52.682Z,95882.19
2023-10-23T03:44:22.013Z,95885.41
2023-10-23T03:46:50.008Z,95872.03
2023-10-23T03:49:18.056Z,95867.25
2023-10-23T03:51:46.020Z,95885.25
2023-10-23T03:54:14.026Z,95890.03
2023-10-23T03:56:42.019Z,95887.50
2023-10-23T03:59:10.050Z,95883.47
2023-10-23T04:01:39.456Z,95884.78
2023-10-23T04:04:08.386Z,95886.72
2023-10-23T04:06:37.110Z,95888.31
2023-10-23T04:09:05.349Z,95900.59
2023-10-23T04:11:33.357Z,95883.84
2023-10-23T04:14:01.305Z,95882.09
2023-10-23T04:16:29.370Z,95877.22
2023-10-23T04:18:58.752Z,95872.81
2023-10-23T04:21:26.850Z,95876.16
2023-10-23T04:23:54.830Z,95873.03
2023-10-23T04:26:22.889Z,95875.44
2023-10-23T04:28:50.832Z,95860.69
2023-10-23T04:31:18.814Z,95865.03
2023-10-23T04:33:46.803Z,95858.38
2023-10-23T04:36:16.132Z,95873.28
2023-10-23T04:38:44.221Z,95857.72
2023-10-23T04:41:12.309Z,95853.94
2023-10-23T04:43:40.450Z,95856.13
2023-10-23T04:46:08.472Z,95862.91
2023-10-23T04:48:36.528Z,95848.72
2023-10-23T04:51:04.544Z,95863.75
2023-10-23T04:53:33.903Z,95857.72
2023-10-23T04:56:01.879Z,95854.50
2023-10-23T04:58:30.932Z,95864.09
2023-10-23T05:00:59.105Z,95859.31
2023-10-23T05:03:27.253Z,95859.59
2023-10-23T05:05:55.265Z,95868.22
2023-10-23T05:08:23.289Z,95852.41
2023-10-23T05:10:53.113Z,95845.09
2023-10-23T05:13:21.133Z,95844.31
2023-10-23T05:15:49.133Z,95852.47
2023-10-23T05:18:17.102Z,95843.53
2023-10-23T05:20:45.103Z,95842.59
2023-10-23T05:23:13.051Z,95846.00
2023-10-23T05:25:41.050Z,95838.97
2023-10-23T05:28:10.394Z,95833.66
2023-10-23T05:30:38.374Z,95840.41
2023-10-23T05:33:06.379Z,95841.16
2023-10-23T05:35:34.396Z,95840.59
2023-10-23T05:38:02.351Z,95847.56
2023-10-23T05:40:30.330Z,95858.28
2023-10-23T05:42:58.316Z,95854.06
2023-10-23T05:45:27.882Z,95856.41
2023-10-23T05:47:55.879Z,95860.47
2023-10-23T05:50:24.027Z,95856.47
2023-10-23T05:52:51.987Z,95847.69
2023-10-23T05:55:22.007Z,95857.28
2023-10-23T05:57:50.041Z,95854.91
2023-10-23T06:00:18.993Z,95857.28
2023-10-23T06:02:48.502Z,95856.84
2023-10-23T06:05:16.484Z,95866.34
2023-10-23T06:07:44.576Z,95862.34
2023-10-23T06:10:12.683Z,95864.69
2023-10-23T06:12:40.703Z,95872.25
2023-10-23T06:15:11.325Z,95877.81
2023-10-23T06:17:39.377Z,95872.91
2023-10-23T06:20:10.806Z,95889.94
2023-10-23T06:22:38.748Z,95885.66
2023-10-23T06:25:07.317Z,95888.78
2023-10-23T06:27:35.291Z,95892.78
2023-10-23T06:30:04.213Z,95882.38
2023-10-23T06:32:35.876Z,95876.44
2023-10-23T06:35:05.276Z,95880.16
2023-10-23T06:37:34.960Z,95888.41
2023-10-23T06:40:04.217Z,95887.09
2023-10-23T06:42:32.251Z,95888.56
2023-10-23T06:45:00.504Z,95885.03
2023-10-23T06:47:28.865Z,95888.94
2023-10-23T06:49:56.915Z,95883.84
2023-10-23T06:52:25.020Z,95891.00
2023-10-23T06:54:54.435Z,95886.25
2023-10-23T06:57:22.562Z,95894.19
2023-10-23T06:59:51.592Z,95888.53
2023-10-23T07:02:19.710Z,95890.19
2023-10-23T07:04:49.197Z,95887.16
2023-10-23T07:07:28.761Z,95878.44
2023-10-23T07:10:01.704Z,95885.50
2023-10-23T07:12:30.373Z,95890.25
2023-10-23T07:14:58.568Z,95893.34
2023-10-23T07:17:26.750Z,95882.44
2023-10-23T07:19:54.797Z,95886.56
2023-10-23T07:22:23.020Z,95883.47
2023-10-23T07:24:50.993Z,95875.59
2023-10-23T07:27:20.459Z,95882.69
2023-10-23T07:29:48.874Z,95877.78
2023-10-23T07:32:17.077Z,95879.78
2023-10-23T07:34:45.357Z,95878.13
2023-10-23T07:37:19.206Z,95873.34
2023-10-23T07:39:48.987Z,95876.06
2023-10-23T07:42:17.525Z,95876.81
2023-10-23T07:44:47.033Z,95872.41
2023-10-23T07:47:15.434Z,95869.22
2023-10-23T07:49:43.471Z,95876.97
2023-10-23T07:52:11.640Z,95872.06
2023-10-23T07:54:39.785Z,95874.84
2023-10-23T07:57:07.796Z,95878.88
2023-10-23T07:59:35.814Z,95873.81
2023-10-23T08:02:05.717Z,95878.34
2023-10-23T08:04:34.258Z,95865.44
2023-10-23T08:07:02.608Z,95865.72
2023-10-23T08:09:30.721Z,95864.16
2023-10-23T08:11:58.857Z,95860.97
2023-10-23T08:14:26.938Z,95855.44
2023-10-23T08:16:54.996Z,95853.09
2023-10-23T08:19:24.636Z,95838.00
2023-10-23T08:21:53.484Z,95837.97
2023-10-23T08:24:21.523Z,95842.69
2023-10-23T08:26:49.464Z,95837.41
2023-10-23T08:29:17.453Z,95835.09
2023-10-23T08:31:45.477Z,95830.25
2023-10-23T08:34:13.534Z,95830.69
2023-10-23T08:36:43.048Z,95826.63
2023-10-23T08:39:11.791Z,95821.84
2023-10-23T08:41:42.776Z,95826.47
2023-10-23T08:44:12.007Z,95821.84
2023-10-23T08:46:42.307Z,95815.56
2023-10-23T08:49:10.605Z,95819.09
2023-10-23T08:51:43.611Z,95821.16
2023-10-23T08:54:18.709Z,95816.97
2023-10-23T08:56:48.929Z,95816.38
2023-10-23T08:59:16.962Z,95816.25
2023-10-23T09:01:45.057Z,95809.63
2023-10-23T09:04:14.207Z,95812.38
2023-10-23T09:06:44.734Z,95818.75
2023-10-23T09:09:12.956Z,95829.78
2023-10-23T09:11:44.733Z,95820.75
2023-10-23T09:14:24.028Z,95826.28
2023-10-23T09:16:53.454Z,95821.47
2023-10-23T09:19:31.058Z,95820.63
2023-10-23T09:22:00.865Z,95810.56
2023-10-23T09:24:29.163Z,95806.94
2023-10-23T09:26:57.385Z,95798.72
2023-10-23T09:29:26.073Z,95804.53
2023-10-23T09:31:56.072Z,95800.47
2023-10-23T09:34:24.274Z,95789.25
2023-10-23T09:36:53.983Z,95802.78
2023-10-23T09:39:24.294Z,95799.34
2023-10-23T09:41:54.317Z,95808.59
2023-10-23T09:44:25.640Z,95803.78
2023-10-23T09:46:56.087Z,95799.16
2023-10-23T09:49:25.382Z,95802.38
2023-10-23T09:52:01.634Z,95800.09
2023-10-23T09:54:33.946Z,95802.22
2023-10-23T09:57:06.158Z,95812.56
2023-10-23T09:59:43.793Z,95807.75
2023-10-23T10:02:12.430Z,95803.69
2023-10-23T10:04:53.632Z,95803.03
2023-10-23T10:07:28.584Z,95798.78
2023-10-23T10:09:59.122Z,95795.09
2023-10-23T10:12:29.256Z,95792.34
2023-10-23T10:14:59.796Z,95790.78
2023-10-23T10:17:29.943Z,95795.09
2023-10-23T10:19:58.680Z,95798.53
2023-10-23T10:22:32.733Z,95789.19
2023-10-23T10:25:02.566Z,95785.09
2023-10-23T10:27:30.878Z,95766.41
2023-10-23T10:30:05.440Z,95771.03
2023-10-23T10:32:34.878Z,95777.00
2023-10-23T10:35:41.714Z,95763.97
2023-10-23T10:38:13.991Z,95760.09
2023-10-23T10:41:00.292Z,95760.31
2023-10-23T10:43:33.576Z,95762.03
2023-10-23T10:46:03.357Z,95774.50
2023-10-23T10:48:44.250Z,95772.81
2023-10-23T10:51:15.760Z,95766.63
2023-10-23T10:53:44.132Z,95769.75
2023-10-23T10:56:14.040Z,95765.88
2023-10-23T10:58:44.456Z,95754.31
2023-10-23T11:01:12.611Z,95761.50
2023-10-23T11:03:42.579Z,95756.25
2023-10-23T11:06:11.551Z,95749.19
2023-10-23T11:08:42.755Z,95741.88
2023-10-23T11:11:10.931Z,95735.38
2023-10-23T11:13:41.349Z,95728.53
2023-10-23T11:16:09.540Z,95721.41
2023-10-23T11:18:38.105Z,95718.81
2023-10-23T11:21:07.788Z,95715.84
2023-10-23T11:23:35.739Z,95722.56
2023-10-23T11:26:05.043Z,95711.00
2023-10-23T11:28:33.087Z,95705.16
2023-10-23T11:31:02.605Z,95703.41
2023-10-23T11:33:30.693Z,95696.88
2023-10-23T11:35:58.782Z,95699.66
2023-10-23T11:38:28.545Z,95694.56
2023-10-23T11:40:56.927Z,95692.50
2023-10-23T11:43:25.162Z,95687.88
2023-10-23T11:45:53.509Z,95678.38
2023-10-23T11:48:23.456Z,95677.38
2023-10-23T11:50:53.744Z,95673.66
2023-10-23T11:53:22.078Z,95667.31
2023-10-23T11:55:52.246Z,95662.75
2023-10-23T11:58:28.086Z,95661.41
2023-10-23T12:00:56.285Z,95657.59
2023-10-23T12:03:25.735Z,95665.00
2023-10-23T12:05:54.312Z,95665.84
2023-10-23T12:08:22.612Z,95658.75
2023-10-23T12:10:51.033Z,95660.19
2023-10-23T12:13:19.221Z,95660.88
2023-10-23T12:15:47.424Z,95654.38
2023-10-23T12:18:15.554Z,95660.66
2023-10-23T12:20:45.367Z,95659.56
2023-10-23T12:23:13.602Z,95648.72
2023-10-23T12:25:41.748Z,95639.09
2023-10-23T12:28:09.955Z,95628.16
2023-10-23T12:30:38.459Z,95628.41
2023-10-23T12:33:16.609Z,95624.03
2023-10-23T12:35:53.717Z,95624.47
2023-10-23T12:38:23.204Z,95605.31
2023-10-23T12:40:51.411Z,95605.25
2023-10-23T12:43:19.568Z,95615.13
2023-10-23T12:45:48.126Z,95599.66
2023-10-23T12:48:16.369Z,95605.81
2023-10-23T12:50:46.051Z,95600.66
2023-10-23T12:53:16.220Z,95576.69
2023-10-23T12:55:44.953Z,95577.78
2023-10-23T12:58:12.996Z,95567.56
2023-10-23T13:00:41.137Z,95572.69
2023-10-23T13:03:09.134Z,95581.25
2023-10-23T13:05:37.623Z,95578.34
2023-10-23T13:08:06.048Z,95575.53
2023-10-23T13:10:35.558Z,95583.63
2023-10-23T13:13:03.937Z,95575.31
2023-10-23T13:15:32.026Z,95582.38
2023-10-23T13:18:02.724Z,95565.53
2023-10-23T13:21:29.814Z,95551.94
2023-10-23T13:23:19.293Z,95551.94
2023-10-23T13:25:58.068Z,95560.78
2023-10-23T13:28:35.276Z,95559.41
2023-10-23T13:31:03.947Z,95562.03
2023-10-23T13:33:32.060Z,95569.38
2023-10-23T13:36:00.390Z,95578.97
2023-10-23T13:38:28.574Z,95584.13
2023-10-23T13:40:58.319Z,95602.25
2023-10-23T13:43:27.859Z,95594.72
2023-10-23T13:45:56.040Z,95588.44
2023-10-23T13:48:24.150Z,95577.91
2023-10-23T13:50:52.853Z,95575.97
2023-10-23T13:53:23.080Z,95574.09
2023-10-23T13:55:51.582Z,95563.47
2023-10-23T13:58:21.720Z,95556.16
2023-10-23T14:00:49.982Z,95552.47
2023-10-23T14:03:18.213Z,95548.13
2023-10-23T14:05:46.517Z,95540.22
2023-10-23T14:08:14.549Z,95521.16
2023-10-23T14:10:42.547Z,95513.53
2023-10-23T14:13:10.666Z,95520.91
2023-10-23T14:15:40.178Z,95504.97
2023-10-23T14:18:08.199Z,95504.19
2023-10-23T14:20:36.270Z,95490.69
2023-10-23T14:23:05.092Z,95475.41
2023-10-23T14:25:33.220Z,95464.09
2023-10-23T14:28:01.403Z,95458.72
2023-10-23T14:30:29.574Z,95446.59
2023-10-23T14:32:59.050Z,95437.97
2023-10-23T14:35:32.430Z,95457.19
2023-10-23T14:38:01.171Z,95460.22
2023-10-23T14:40:29.238Z,95463.00
2023-10-23T14:42:58.403Z,95464.44
2023-10-23T14:45:26.572Z,95461.97
2023-10-23T14:47:54.868Z,95451.47
2023-10-23T14:50:24.238Z,95429.38
2023-10-23T14:52:52.250Z,95440.34
2023-10-23T14:55:20.219Z,95446.19
2023-10-23T14:57:48.236Z,95442.41
2023-10-23T15:00:16.810Z,95444.22
2023-10-23T15:02:46.186Z,95437.88
2023-10-23T15:05:14.240Z,95426.19
2023-10-23T15:07:43.695Z,95432.16
2023-10-23T15:10:11.835Z,95420.50
2023-10-23T15:12:39.913Z,95420.25
2023-10-23T15:15:09.427Z,95415.63
2023-10-23T15:17:37.506Z,95410.25
2023-10-23T15:20:06.212Z,95404.50
2023-10-23T15:22:35.529Z,95404.41
2023-10-23T15:25:05.726Z,95403.34
2023-10-23T15:27:33.915Z,95384.84
2023-10-23T15:30:01.978Z,95376.94
2023-10-23T15:32:32.002Z,95361.22
2023-10-23T15:35:00.121Z,95362.63
2023-10-23T15:37:28.282Z,95361.22
2023-10-23T15:39:56.383Z,95359.59
2023-10-23T15:42:26.318Z,95356.63
2023-10-23T15:44:58.255Z,95352.56
2023-10-23T15:47:26.371Z,95349.56
2023-10-23T15:49:54.384Z,95352.69
2023-10-23T15:52:22.416Z,95346.72
2023-10-23T15:54:50.430Z,95347.16
2023-10-23T15:57:18.400Z,95353.06
2023-10-23T15:59:47.999Z,95352.50
2023-10-23T16:02:16.466Z,95349.91
2023-10-23T16:04:48.275Z,95352.72
2023-10-23T16:07:16.617Z,95346.75
2023-10-23T16:09:44.710Z,95351.03
2023-10-23T16:12:12.740Z,95343.91
2023-10-23T16:17:13.142Z,95351.19
2023-10-23T16:19:41.278Z,95353.59
2023-10-23T16:22:09.746Z,95336.94
2023-10-23T16:24:38.025Z,95336.16
2023-10-23T16:27:06.723Z,95332.03
2023-10-23T16:29:34.747Z,95321.84
2023-10-23T16:32:02.924Z,95322.28
2023-10-23T16:34:33.865Z,95314.75
2023-10-23T16:37:01.880Z,95306.69
2023-10-23T16:39:31.944Z,95297.19
2023-10-23T16:42:00.211Z,95297.28
2023-10-23T16:44:37.452Z,95293.28
2023-10-23T16:47:14.368Z,95288.16
2023-10-23T16:49:44.351Z,95293.69
2023-10-23T16:52:12.361Z,95296.97
2023-10-23T16:54:40.631Z,95297.19
2023-10-23T16:57:10.362Z,95301.63
2023-10-23T16:59:39.059Z,95300.13
2023-10-23T17:02:07.371Z,95314.03
2023-10-23T17:04:35.739Z,95324.44
2023-10-23T17:07:05.797Z,95310.91
2023-10-23T17:09:33.816Z,95314.66
2023-10-23T17:12:01.788Z,95313.56
2023-10-23T17:14:29.858Z,95309.25
2023-10-23T17:16:57.895Z,95309.84
2023-10-23T17:19:26.099Z,95301.53
2023-10-23T17:21:54.137Z,95300.72
2023-10-23T17:24:23.489Z,95290.09
2023-10-23T17:26:51.449Z,95291.31
2023-10-23T17:29:19.457Z,95290.44
2023-10-23T17:31:48.415Z,95285.19
2023-10-23T17:34:18.092Z,95291.94
2023-10-23T17:36:46.064Z,95281.66
2023-10-23T17:39:14.040Z,95282.34
2023-10-23T17:41:43.718Z,95285.50
2023-10-23T17:44:11.696Z,95281.97
2023-10-23T17:46:39.758Z,95267.34
2023-10-23T17:49:07.911Z,95266.06
2023-10-23T17:51:36.444Z,95256.91
2023-10-23T17:54:06.209Z,95266.38
2023-10-23T17:56:37.390Z,95253.81
2023-10-23T17:59:07.001Z,95260.84
2023-10-23T18:01:35.226Z,95245.75
2023-10-23T18:04:03.384Z,95235.53
2023-10-23T18:06:32.271Z,95228.22
2023-10-23T18:09:02.072Z,95226.22
2023-10-23T18:11:30.369Z,95221.03
2023-10-23T18:13:58.375Z,95223.03
2023-10-23T18:16:28.832Z,95207.25
2023-10-23T18:18:57.283Z,95208.03
2023-10-23T18:21:25.389Z,95233.94
2023-10-23T18:23:53.344Z,95224.19
2023-10-23T18:26:21.381Z,95234.00
2023-10-23T18:28:49.317Z,95217.84
2023-10-23T18:31:17.375Z,95219.03
2023-10-23T18:33:46.834Z,95212.13
2023-10-23T18:36:17.271Z,95218.03
2023-10-23T18:38:46.192Z,95221.66
2023-10-23T18:41:18.580Z,95220.81
2023-10-23T18:43:46.993Z,95223.44
2023-10-23T18:46:15.868Z,95213.84
2023-10-23T18:48:45.055Z,95228.28
2023-10-23T18:51:14.875Z,95210.44
2023-10-23T18:53:42.945Z,95222.69
2023-10-23T18:56:11.394Z,95220.06
2023-10-23T18:58:42.978Z,95209.75
2023-10-23T19:01:13.435Z,95202.88
2023-10-23T19:03:43.758Z,95210.50
2023-10-23T19:06:11.812Z,95211.25
2023-10-23T19:08:42.269Z,95214.97
2023-10-23T19:11:10.575Z,95207.91
2023-10-23T19:13:38.616Z,95201.22
2023-10-23T19:16:08.204Z,95208.34
2023-10-23T19:18:37.465Z,95215.09
2023-10-23T19:21:09.791Z,95204.06
2023-10-23T19:23:37.893Z,95205.38
2023-10-23T19:26:07.564Z,95210.25
2023-10-23T19:28:36.508Z,95201.06
2023-10-23T19:31:13.625Z,95218.94
2023-10-23T19:33:43.524Z,95207.84
2023-10-23T19:36:13.219Z,95213.16
2023-10-23T19:38:43.534Z,95209.31
2023-10-23T19:41:16.273Z,95204.09
2023-10-23T19:43:49.364Z,95211.13
2023-10-23T19:46:17.965Z,95211.31
2023-10-23T19:48:47.342Z,95202.50
2023-10-23T19:51:17.962Z,95218.38
2023-10-23T19:53:51.889Z,95231.66
2023-10-23T19:56:29.948Z,95211.34
2023-10-23T19:59:00.365Z,95218.63
2023-10-23T20:01:28.562Z,95223.94
2023-10-23T20:03:56.720Z,95234.31
2023-10-23T20:06:24.850Z,95225.31
2023-10-23T20:08:52.844Z,95225.31
2023-10-23T20:11:22.324Z,95213.00
2023-10-23T20:13:50.304Z,95215.25
2023-10-23T20:16:18.349Z,95206.66
2023-10-23T20:18:46.313Z,95214.91
2023-10-23T20:21:15.336Z,95214.81
2023-10-23T20:23:43.379Z,95220.41
2023-10-23T20:26:15.377Z,95225.47
2023-10-23T20:28:45.389Z,95225.72
2023-10-23T20:31:18.799Z,95226.38
2023-10-23T20:33:47.471Z,95235.19
2023-10-23T20:36:15.456Z,95230.44
2023-10-23T20:38:43.380Z,95227.72
2023-10-23T20:41:16.975Z,95222.13
2023-10-23T20:43:47.807Z,95235.84
2023-10-23T20:46:16.305Z,95234.28
2023-10-23T20:48:44.443Z,95247.13
2023-10-23T20:51:12.900Z,95252.78
2023-10-23T20:53:41.014Z,95252.03
2023-10-23T20:56:09.430Z,95256.81
2023-10-23T20:58:38.945Z,95257.22
2023-10-23T21:01:09.538Z,95263.97
2023-10-23T21:03:37.945Z,95267.66
2023-10-23T21:06:07.503Z,95276.09
2023-10-23T21:08:38.070Z,95264.16
2023-10-23T21:11:06.739Z,95280.94
2023-10-23T21:13:35.237Z,95281.78
2023-10-23T21:16:03.893Z,95299.13
2023-10-23T21:18:33.229Z,95293.50
2023-10-23T21:21:01.476Z,95292.97
2023-10-23T21:23:30.226Z,95294.91
2023-10-23T21:25:58.528Z,95309.69
2023-10-23T21:28:27.107Z,95302.78
2023-10-23T21:30:55.343Z,95295.81
2023-10-23T21:33:23.428Z,95302.41
2023-10-23T21:35:53.601Z,95293.41
2023-10-23T21:38:21.597Z,95299.22
2023-10-23T21:40:50.081Z,95286.44
2023-10-23T21:43:19.564Z,95287.78
2023-10-23T21:45:47.772Z,95280.72
2023-10-23T21:48:18.283Z,95283.22
2023-10-23T21:50:46.501Z,95268.09
2023-10-23T21:53:16.547Z,95260.88
2023-10-23T21:55:44.998Z,95254.53
2023-10-23T21:58:13.574Z,95243.91
2023-10-23T22:00:41.879Z,95268.09
2023-10-23T22:03:10.175Z,95287.47
2023-10-23T22:05:38.777Z,95306.59
2023-10-23T22:08:07.410Z,95313.56
2023-10-23T22:10:37.553Z,95310.34
2023-10-23T22:13:05.985Z,95317.22
2023-10-23T22:15:33.900Z,95311.13
2023-10-23T22:18:02.231Z,95300.47
2023-10-23T22:20:30.236Z,95278.28
2023-10-23T22:22:58.168Z,95280.34
2023-10-23T22:25:26.148Z,95313.72
2023-10-23T22:27:55.732Z,95320.00
2023-10-23T22:30:23.783Z,95315.44
2023-10-23T22:33:03.873Z,95301.69
2023-10-23T22:35:40.185Z,95288.31
2023-10-23T22:38:10.032Z,95294.00
2023-10-23T22:40:38.246Z,95293.38
2023-10-23T22:43:07.768Z,95279.31
2023-10-23T22:45:41.355Z,95314.00
2023-10-23T22:48:19.151Z,95331.00
2023-10-23T22:50:47.705Z,95324.09
2023-10-23T22:53:16.120Z,95343.47
2023-10-23T22:55:44.609Z,95340.16
2023-10-23T22:58:19.062Z,95356.78
2023-10-23T23:00:47.444Z,95378.63
2023-10-23T23:03:15.924Z,95374.84
2023-10-23T23:05:46.453Z,95375.78
2023-10-23T23:08:15.844Z,95384.28
2023-10-23T23:10:44.205Z,95376.09
2023-10-23T23:13:14.297Z,95390.66
2023-10-23T23:15:46.149Z,95397.66
2023-10-23T23:18:18.624Z,95402.97
2023-10-23T23:20:51.975Z,95389.03
2023-10-23T23:23:19.946Z,95378.28
2023-10-23T23:25:47.887Z,95352.97
2023-10-23T23:28:17.261Z,95346.13
2023-10-23T23:30:45.287Z,95338.34
2023-10-23T23:33:13.251Z,95321.75
2023-10-23T23:35:41.225Z,95355.91
2023-10-23T23:38:09.175Z,95368.59
2023-10-23T23:40:37.172Z,95365.31
2023-10-23T23:43:05.295Z,95359.13
2023-10-23T23:45:34.677Z,95336.19
2023-10-23T23:48:02.767Z,95325.41
2023-10-23T23:50:30.763Z,95315.56
2023-10-23T23:52:59.337Z,95320.38
2023-10-23T23:55:27.900Z,95307.09
2023-10-23T23:57:55.949Z,95304.16
